Airfield :
LOGIN :

Register | Disclaimer

   EN    FR    IT 

 










Legend :    VFR   Marginal VFR   IFR   Intensive IFR   Very Intensive IFR
Visi :
Ceiling :
>= 8 km
>= 3000ft
5 to 8 km
1000 to 3000 ft
1500m to 5 km
500 to 1000 ft
800 to 1500m
200 to 500 ft
< 800m
< 200 ft
Symbols :   Thunderstorms  Fog  Heavy snow  Heavy precipitations  Wind > 20 kt
SIGMETs :     Misc.  Thunderstorms  Icing  Turbulence  Mountain Waves  Volcanic Ashes






- Airport Elevation : 404 ft
- IATA code : WRO


EPWR - Wroclaw

CURRENT METAR :
  • 221430Z 33012KT 9999 SCT037 M00/M06 Q1027

EXPIRED METARs :
  • 221400Z 33011KT 9999 BKN035 M01/M06 Q1027
  • 221330Z 33013KT 9999 BKN036 00/M06 Q1027
  • 221300Z 35010KT 9999 BKN025 M00/M06 Q1026
  • 221230Z 36011KT 9999 BKN025 00/M06 Q1026
  • 221200Z 33012KT 9999 BKN022 00/M05 Q1026

TAF TAF EPWR
Valid from the 22 at 15:00 until the 23 at 15:00 UTC


221430Z 2215/2315 33010KT 9999 BKN030
BECMG 2215/2218 27007KT
TEMPO 2222/2306 2000 BR BKN005
BECMG 2306/2308 BKN007
TEMPO 2306/2308 2000 SN BR
TEMPO 2308/2315 4000 SNRA RA BR
PROB30
TEMPO 2308/2312 1200 -FZDZRA BR BKN004



MET'MAP, your aeronautical weather chart ! - Copyright ORBIFLY December 2007 - Disclaimer

ORBIFLY MET'MAP TEAM :

Programming & Development : Alexandra Zaïnal
Concept & original design : Baudouin d'Aumeries
Assistance for programming : Marc-Olivier Méhu
Technical & hardware support : Manuel Goepfert

Contact : metmap@orbifly.com




SOURCES & CREDITS :

   NOAA